Time;durP1;ratioP1;P1;durP2;ratioP2;P2;SDS_P1;SDS_P2;PMS_P1;PMS_P2;Temp;Humidity;BMP_temperature;BMP_pressure;BME280_temperature;BME280_humidity;BME280_pressure;Samples;Min_cycle;Max_cycle;Signal;HPM_P1;HPM_P2
2023/09/05 00:00:28;;;;;;;12.67;6.17;;;;;;;18.58;71.26;100984.73;124863;1102;101984;-79
2023/09/05 00:03:19;;;;;;;15.23;6.40;;;;;;;18.58;71.38;100983.86;124796;1099;109769;-78
2023/09/05 00:05:59;;;;;;;15.15;6.40;;;;;;;18.55;71.34;100983.83;124776;1098;102396;-79
2023/09/05 00:08:31;;;;;;;12.67;5.87;;;;;;;18.52;71.69;100982.02;124778;1099;104176;-80
2023/09/05 00:11:02;;;;;;;13.07;6.03;;;;;;;18.50;71.35;100983.77;124832;1099;104165;-78
2023/09/05 00:13:34;;;;;;;14.77;6.00;;;;;;;18.50;71.80;100987.31;124717;1099;117884;-78
2023/09/05 00:16:05;;;;;;;14.93;6.10;;;;;;;18.48;71.46;100982.84;124759;1102;101970;-79
2023/09/05 00:18:36;;;;;;;13.87;6.03;;;;;;;18.45;71.34;100990.78;124893;1099;102025;-80
2023/09/05 00:21:09;;;;;;;13.27;6.60;;;;;;;18.42;71.88;100981.03;124821;1099;104105;-79
2023/09/05 00:23:42;;;;;;;11.20;5.67;;;;;;;18.42;71.88;100990.78;124773;1099;102131;-78
2023/09/05 00:26:13;;;;;;;12.43;6.10;;;;;;;18.38;71.57;100987.17;124631;1100;101957;-79
2023/09/05 00:28:45;;;;;;;12.87;6.30;;;;;;;18.38;71.70;100991.61;124593;1102;102088;-77
2023/09/05 00:31:16;;;;;;;11.57;6.03;;;;;;;18.35;71.36;100989.80;124689;1099;101988;-78
2023/09/05 00:33:47;;;;;;;14.23;6.20;;;;;;;18.33;71.51;100987.12;124709;1099;104089;-79
2023/09/05 00:36:19;;;;;;;12.80;6.10;;;;;;;18.32;71.79;100988.02;124807;1099;104309;-79
2023/09/05 00:38:50;;;;;;;12.80;5.90;;;;;;;18.30;71.28;100984.42;125272;1099;104162;-79
2023/09/05 00:41:23;;;;;;;11.87;6.00;;;;;;;18.29;71.58;100990.63;124689;1103;102134;-78
2023/09/05 00:43:54;;;;;;;10.78;5.53;;;;;;;18.29;71.86;100992.38;124751;1102;104028;-78
2023/09/05 00:46:26;;;;;;;14.27;5.83;;;;;;;18.26;72.08;100992.34;124736;1099;104178;-78
2023/09/05 00:49:02;;;;;;;13.67;6.20;;;;;;;18.25;71.48;100987.92;124690;1099;104182;-78
2023/09/05 00:51:34;;;;;;;12.57;5.87;;;;;;;18.24;71.89;100994.98;124696;1102;101979;-79
2023/09/05 00:54:06;;;;;;;14.07;6.07;;;;;;;18.21;71.80;100997.59;124868;1099;104216;-79
2023/09/05 00:56:38;;;;;;;10.93;5.70;;;;;;;18.21;71.88;100999.37;124805;1102;102875;-79
2023/09/05 00:59:11;;;;;;;13.30;5.83;;;;;;;18.19;71.85;100996.70;124869;1099;104093;-79
2023/09/05 01:01:42;;;;;;;13.73;6.07;;;;;;;18.13;72.18;100989.53;124913;1100;104264;-79
2023/09/05 01:04:15;;;;;;;13.07;5.60;;;;;;;18.15;71.86;100992.20;124803;1102;102022;-79
2023/09/05 01:06:56;;;;;;;11.30;6.57;;;;;;;18.13;71.81;100988.65;124787;1099;104254;-79
2023/09/05 01:09:37;;;;;;;13.87;6.30;;;;;;;18.10;71.83;100994.80;124766;1099;104242;-79
2023/09/05 01:12:10;;;;;;;13.63;6.37;;;;;;;18.07;71.91;100989.45;124754;1099;104169;-79
2023/09/05 01:14:41;;;;;;;14.77;6.23;;;;;;;18.05;72.15;100985.02;124725;1099;103008;-78
2023/09/05 01:17:13;;;;;;;12.90;6.20;;;;;;;18.03;71.84;100989.39;124718;1099;104185;-78
2023/09/05 01:19:45;;;;;;;12.23;5.63;;;;;;;17.99;72.37;100988.47;124708;1099;102056;-78
2023/09/05 01:22:28;;;;;;;12.50;6.10;;;;;;;17.98;72.23;100986.67;124830;1099;104268;-78
2023/09/05 01:25:00;;;;;;;14.97;6.57;;;;;;;17.97;72.18;100984.91;124979;1099;111284;-78
2023/09/05 01:27:32;;;;;;;15.30;5.77;;;;;;;17.95;72.42;100976.02;124831;1100;102831;-78
2023/09/05 01:30:05;;;;;;;15.13;5.97;;;;;;;17.92;72.53;100979.55;124841;1102;101916;-79
2023/09/05 01:32:38;;;;;;;13.28;5.87;;;;;;;17.90;72.41;100981.30;124755;1099;101903;-79
2023/09/05 01:35:10;;;;;;;16.20;6.57;;;;;;;17.89;72.92;100982.16;124757;1102;102521;-79
2023/09/05 01:37:42;;;;;;;11.13;5.63;;;;;;;17.88;72.89;100987.41;124807;1099;104230;-81
2023/09/05 01:40:14;;;;;;;14.10;5.90;;;;;;;17.86;72.71;100982.08;124942;1099;102804;-80
2023/09/05 01:42:46;;;;;;;12.77;5.87;;;;;;;17.86;72.69;100982.08;124965;1098;104262;-80
2023/09/05 01:45:18;;;;;;;12.27;5.83;;;;;;;17.85;72.81;100985.59;124904;1099;104313;-80
2023/09/05 01:47:49;;;;;;;15.83;6.03;;;;;;;17.84;72.90;100981.19;124713;1099;101971;-78
2023/09/05 01:50:23;;;;;;;14.23;5.50;;;;;;;17.84;72.88;100988.23;124631;1099;104246;-78
2023/09/05 01:52:54;;;;;;;13.10;5.60;;;;;;;17.83;72.94;100987.35;124782;1102;101943;-79
2023/09/05 01:55:26;;;;;;;13.10;6.00;;;;;;;17.81;72.89;100993.50;124720;1102;102364;-78
2023/09/05 01:57:58;;;;;;;14.13;5.63;;;;;;;17.78;72.97;100995.25;124578;1102;104394;-77
2023/09/05 02:00:29;;;;;;;14.57;6.23;;;;;;;17.76;73.04;100996.09;124692;1102;104214;-78
2023/09/05 02:03:00;;;;;;;14.13;5.80;;;;;;;17.75;73.36;101004.94;124548;1099;104242;-78
2023/09/05 02:05:32;;;;;;;11.73;5.40;;;;;;;17.73;73.28;101011.97;124662;1099;102022;-78
2023/09/05 02:08:04;;;;;;;12.60;5.57;;;;;;;17.72;73.42;100999.59;124767;1099;101918;-79
2023/09/05 02:10:35;;;;;;;13.53;6.07;;;;;;;17.71;73.60;101008.41;124812;1099;104476;-78
2023/09/05 02:13:06;;;;;;;14.07;6.20;;;;;;;17.67;73.62;101004.83;124861;1099;104245;-79
2023/09/05 02:15:39;;;;;;;13.03;6.20;;;;;;;17.65;73.44;101003.01;124810;1099;104255;-79
2023/09/05 02:18:11;;;;;;;11.60;5.40;;;;;;;17.61;73.33;101002.08;124756;1102;104270;-79
2023/09/05 02:20:42;;;;;;;14.20;6.10;;;;;;;17.63;73.69;101002.98;124830;1099;104178;-80
2023/09/05 02:23:14;;;;;;;11.80;5.70;;;;;;;17.59;73.52;101003.80;124840;1099;101904;-79
2023/09/05 02:25:55;;;;;;;12.80;5.90;;;;;;;17.56;73.97;101017.94;124698;1099;104217;-80
2023/09/05 02:28:27;;;;;;;11.23;5.50;;;;;;;17.53;74.28;100995.75;124764;1099;104179;-79
2023/09/05 02:30:58;;;;;;;13.20;6.00;;;;;;;17.50;74.55;101008.97;124742;1102;104204;-79
2023/09/05 02:33:33;;;;;;;14.43;5.43;;;;;;;17.48;74.20;101002.75;124806;1102;104280;-79
2023/09/05 02:36:15;;;;;;;13.53;6.07;;;;;;;17.47;74.09;101003.61;124646;1099;104079;-79
2023/09/05 02:38:46;;;;;;;13.00;5.33;;;;;;;17.46;74.54;100996.55;124846;1102;102015;-79
2023/09/05 02:41:18;;;;;;;11.13;5.70;;;;;;;17.44;74.61;100993.87;124890;1101;101868;-80
2023/09/05 02:43:50;;;;;;;13.73;6.10;;;;;;;17.42;74.63;100992.92;124797;1099;102281;-79
2023/09/05 02:46:22;;;;;;;13.27;5.90;;;;;;;17.38;74.90;100996.42;124935;1099;102070;-80
2023/09/05 02:48:53;;;;;;;11.30;5.73;;;;;;;17.36;75.30;101001.70;124738;1102;104134;-80
2023/09/05 02:51:24;;;;;;;12.50;5.37;;;;;;;17.34;75.45;100991.92;124869;1099;101832;-80
2023/09/05 02:53:59;;;;;;;13.07;5.40;;;;;;;17.33;75.57;100991.05;124928;1099;104277;-79
2023/09/05 02:56:30;;;;;;;9.83;5.27;;;;;;;17.33;75.39;101000.77;124800;1102;102736;-80
2023/09/05 02:59:01;;;;;;;15.13;6.00;;;;;;;17.32;75.58;100994.55;124828;1102;101943;-80
2023/09/05 03:01:33;;;;;;;15.17;5.73;;;;;;;17.31;75.06;100999.83;124884;1102;104284;-80
2023/09/05 03:04:04;;;;;;;12.03;6.10;;;;;;;17.29;75.59;101001.58;124923;1099;104217;-78
2023/09/05 03:06:36;;;;;;;12.87;5.50;;;;;;;17.28;76.00;100997.13;124862;1099;102137;-80
2023/09/05 03:09:07;;;;;;;13.07;5.40;;;;;;;17.27;75.81;101001.55;124815;1100;104383;-79
2023/09/05 03:11:41;;;;;;;14.20;5.50;;;;;;;17.27;75.80;101001.55;124719;1102;104235;-80
2023/09/05 03:14:12;;;;;;;12.10;5.67;;;;;;;17.26;75.90;100994.45;124663;1102;104299;-78
2023/09/05 03:16:44;;;;;;;12.33;5.30;;;;;;;17.27;75.81;101004.20;124793;1102;102737;-81
2023/09/05 03:19:15;;;;;;;12.93;5.27;;;;;;;17.25;75.98;100998.88;124806;1101;101748;-79
2023/09/05 03:21:47;;;;;;;13.70;5.27;;;;;;;17.24;75.69;100998.84;124832;1099;104242;-79
2023/09/05 03:24:18;;;;;;;13.03;5.73;;;;;;;17.22;75.79;101008.55;124683;1102;104355;-78
2023/09/05 03:26:50;;;;;;;18.03;5.50;;;;;;;17.22;75.76;101009.43;124754;1099;104213;-79
2023/09/05 03:29:21;;;;;;;12.70;5.27;;;;;;;17.23;75.49;101015.62;124833;1099;104245;-80
2023/09/05 03:31:54;;;;;;;15.13;5.23;;;;;;;17.23;75.26;101019.19;124806;1099;104239;-79
2023/09/05 03:34:25;;;;;;;14.55;5.70;;;;;;;17.24;75.55;101018.30;124657;1102;102511;-78
2023/09/05 03:36:57;;;;;;;16.07;5.93;;;;;;;17.23;75.58;101016.53;124787;1099;102011;-78
2023/09/05 03:39:28;;;;;;;12.43;6.03;;;;;;;17.22;75.81;101020.04;124825;1099;104271;-78
2023/09/05 03:41:59;;;;;;;11.10;5.20;;;;;;;17.23;75.74;101026.23;124714;1099;104230;-79
2023/09/05 03:44:31;;;;;;;11.83;5.60;;;;;;;17.23;75.78;101023.58;124799;1099;102061;-78
2023/09/05 03:47:02;;;;;;;11.87;5.47;;;;;;;17.21;75.98;101022.67;124734;1099;102029;-79
2023/09/05 03:49:34;;;;;;;13.47;5.90;;;;;;;17.18;75.85;101023.49;124600;1099;101904;-76
2023/09/05 03:52:06;;;;;;;11.33;5.17;;;;;;;17.18;75.82;101023.49;124527;1099;104322;-76
2023/09/05 03:54:38;;;;;;;11.83;5.23;;;;;;;17.21;75.89;101033.27;124532;1099;104235;-75
2023/09/05 03:57:09;;;;;;;10.33;5.10;;;;;;;17.23;75.66;101026.23;124544;1099;102015;-75
2023/09/05 03:59:41;;;;;;;;;;;;;;;17.24;75.49;101028.02;124633;1099;104166;-77
2023/09/05 04:02:13;;;;;;;11.63;5.10;;;;;;;17.24;75.65;101031.55;125349;1102;104230;-76
2023/09/05 04:04:44;;;;;;;12.33;5.50;;;;;;;17.25;75.59;101037.77;124629;1102;104179;-75
2023/09/05 04:07:15;;;;;;;16.13;5.57;;;;;;;17.27;75.58;101037.80;124574;1099;102801;-77
2023/09/05 04:09:49;;;;;;;17.97;5.80;;;;;;;17.27;75.99;101045.76;124601;1099;104198;-78
2023/09/05 04:12:20;;;;;;;11.68;5.85;;;;;;;17.25;75.60;101043.96;124819;1099;101801;-79
2023/09/05 04:14:52;;;;;;;15.17;5.73;;;;;;;17.25;75.70;101035.12;124798;1099;104214;-80
2023/09/05 04:17:23;;;;;;;10.63;5.33;;;;;;;17.27;75.86;101040.45;124874;1102;104236;-83
2023/09/05 04:19:56;;;;;;;12.90;5.27;;;;;;;17.28;76.12;101037.83;124942;1099;104331;-80
2023/09/05 04:22:28;;;;;;;12.47;5.33;;;;;;;17.29;75.79;101046.67;124852;1099;102453;-81
2023/09/05 04:24:59;;;;;;;13.50;5.10;;;;;;;17.29;76.01;101039.59;126028;1099;101816;-80
2023/09/05 04:27:32;;;;;;;13.67;5.90;;;;;;;17.32;75.89;101044.95;124892;1099;102304;-79
2023/09/05 04:30:04;;;;;;;11.53;5.23;;;;;;;17.33;75.82;101044.09;124973;1099;102775;-80
2023/09/05 04:32:48;;;;;;;12.65;5.35;;;;;;;17.34;75.81;101050.28;124975;1099;104267;-81
2023/09/05 04:35:22;;;;;;;13.43;5.17;;;;;;;17.37;75.81;101052.98;124679;1102;102081;-77
2023/09/05 04:37:54;;;;;;;11.60;5.10;;;;;;;17.39;75.94;101053.89;124785;1100;102158;-77
2023/09/05 04:40:25;;;;;;;12.30;5.20;;;;;;;17.42;75.90;101051.28;125024;1099;104217;-77
2023/09/05 04:42:56;;;;;;;10.77;5.03;;;;;;;17.45;75.62;101064.60;124886;1099;104287;-77
2023/09/05 04:45:28;;;;;;;16.27;5.33;;;;;;;17.51;75.82;101059.40;124929;1099;104192;-77
2023/09/05 04:48:00;;;;;;;15.57;5.83;;;;;;;17.56;75.55;101067.44;124941;1099;104169;-78
2023/09/05 04:50:34;;;;;;;15.37;5.07;;;;;;;17.59;75.48;101076.36;124744;1102;104238;-80
2023/09/05 04:53:06;;;;;;;10.87;5.07;;;;;;;17.64;75.54;101080.83;125025;1099;102060;-80
2023/09/05 04:55:38;;;;;;;9.97;4.73;;;;;;;17.66;75.42;101079.99;125104;1099;104328;-81
2023/09/05 04:58:12;;;;;;;14.53;5.23;;;;;;;17.71;75.36;101085.38;125279;1099;102219;-79
2023/09/05 05:00:44;;;;;;;14.13;5.30;;;;;;;17.76;75.20;101083.67;124880;1099;103730;-80
2023/09/05 05:03:15;;;;;;;14.57;5.23;;;;;;;17.79;75.08;101089.03;124945;1099;104227;-79
2023/09/05 05:05:49;;;;;;;10.33;4.93;;;;;;;17.79;74.79;101081.06;125677;1099;101952;-80
2023/09/05 05:08:21;;;;;;;12.53;5.42;;;;;;;17.82;75.10;101080.23;124954;1099;102293;-83
2023/09/05 05:10:52;;;;;;;12.47;5.10;;;;;;;17.86;74.85;101090.05;124781;1099;101801;-78
2023/09/05 05:13:24;;;;;;;11.33;4.90;;;;;;;17.88;74.74;101099.83;124759;1099;104236;-79
2023/09/05 05:15:55;;;;;;;10.90;4.80;;;;;;;17.92;74.38;101093.70;124880;1102;102019;-79
2023/09/05 05:18:27;;;;;;;10.03;4.60;;;;;;;17.94;74.34;101085.77;124911;1099;104205;-79
2023/09/05 05:20:58;;;;;;;11.53;4.80;;;;;;;17.98;74.09;101099.97;124638;1102;104305;-79
2023/09/05 05:23:30;;;;;;;11.77;4.90;;;;;;;18.01;74.07;101081.42;125692;1099;104205;-75
2023/09/05 05:26:02;;;;;;;12.97;5.00;;;;;;;18.04;74.26;101078.81;124607;1099;104239;-75
2023/09/05 05:28:33;;;;;;;10.63;5.00;;;;;;;18.10;73.94;101078.91;124347;1099;102107;-77
2023/09/05 05:31:04;;;;;;;10.55;4.80;;;;;;;18.13;74.21;101066.55;124558;1099;102562;-76
2023/09/05 05:33:36;;;;;;;14.10;4.87;;;;;;;18.17;73.47;101078.13;124288;1102;104427;-74
2023/09/05 05:36:09;;;;;;;13.07;4.90;;;;;;;18.22;73.71;101079.08;124603;1099;104217;-76
2023/09/05 05:38:45;;;;;;;10.23;4.93;;;;;;;18.27;73.43;101079.14;124850;1099;102328;-76
2023/09/05 05:41:26;;;;;;;12.73;4.40;;;;;;;18.34;72.98;101086.33;124629;1099;101874;-81
2023/09/05 05:43:57;;;;;;;11.27;5.10;;;;;;;18.39;72.84;101083.73;124609;1101;104249;-79
2023/09/05 05:46:30;;;;;;;14.90;4.77;;;;;;;18.46;73.35;101080.26;124375;1099;104233;-77
2023/09/05 05:49:03;;;;;;;13.18;5.22;;;;;;;18.54;73.18;101083.02;124341;1099;104195;-74
2023/09/05 05:51:35;;;;;;;11.43;4.70;;;;;;;18.59;73.28;101087.52;124252;1099;104619;-77
2023/09/05 05:54:10;;;;;;;9.80;4.50;;;;;;;18.66;73.00;101092.02;124415;1099;104747;-76
2023/09/05 05:56:41;;;;;;;12.70;4.87;;;;;;;18.73;72.88;101094.75;124546;1099;102102;-74
2023/09/05 05:59:13;;;;;;;11.67;4.77;;;;;;;18.78;72.17;101093.94;124459;1099;104067;-78
2023/09/05 06:01:48;;;;;;;10.83;4.33;;;;;;;18.83;71.68;101107.29;125766;1102;101804;-79
2023/09/05 06:04:24;;;;;;;12.13;5.00;;;;;;;18.85;71.32;101100.24;124577;1099;104182;-77
2023/09/05 06:06:58;;;;;;;15.40;5.23;;;;;;;18.89;71.12;101102.08;126235;1101;101820;-76
2023/09/05 06:09:45;;;;;;;11.10;4.90;;;;;;;18.98;71.68;101099.52;125691;1102;101911;-81
2023/09/05 06:12:37;;;;;;;13.60;5.13;;;;;;;19.04;71.03;101102.24;126307;1100;104049;-87
2023/09/05 06:15:33;;;;;;;13.20;5.00;;;;;;;19.12;70.89;101106.73;126407;1098;102148;-84
2023/09/05 06:18:34;;;;;;;10.70;4.20;;;;;;;19.16;69.39;101106.78;125864;1102;104149;-79
2023/09/05 06:22:08;;;;;;;;;;;;;;;;;;;;;
2023/09/05 06:25:07;;;;;;;10.30;4.40;;;;;;;19.20;69.43;101107.72;126032;1098;102176;-74
2023/09/05 06:28:05;;;;;;;11.77;4.77;;;;;;;19.26;67.33;101105.13;124659;1102;102145;-79
2023/09/05 06:30:47;;;;;;;10.47;4.60;;;;;;;19.31;68.53;101106.05;125350;1099;102195;-80
2023/09/05 06:33:27;;;;;;;10.80;4.80;;;;;;;19.37;67.80;101108.77;125341;1099;104195;-79
2023/09/05 06:36:25;;;;;;;9.60;4.20;;;;;;;19.45;66.95;101110.62;126011;1099;101860;-82
2023/09/05 06:39:33;;;;;;;10.00;4.50;;;;;;;19.54;68.27;101108.00;125632;1099;104179;-80
2023/09/05 06:45:31;;;;;;;11.27;4.93;;;;;;;19.75;66.93;101112.63;126526;1098;101606;-79
2023/09/05 06:48:17;;;;;;;10.93;5.17;;;;;;;19.85;66.17;101109.20;125374;1099;104265;-78
2023/09/05 06:54:11;;;;;;;12.90;4.50;;;;;;;20.10;65.57;101115.58;125290;1099;101961;-76
2023/09/05 06:56:51;;;;;;;9.00;4.30;;;;;;;20.26;65.97;101121.87;124736;1099;102080;-79
2023/09/05 07:03:00;;;;;;;14.13;4.83;;;;;;;20.61;64.91;101110.48;125346;1099;110810;-79
2023/09/05 07:05:32;;;;;;;10.17;4.90;;;;;;;20.77;65.07;101108.82;126336;1098;104153;-78
2023/09/05 07:08:12;;;;;;;10.03;4.80;;;;;;;20.98;65.67;101099.09;124570;1099;104293;-80
2023/09/05 07:11:12;;;;;;;10.30;4.70;;;;;;;21.18;63.47;101100.02;126786;1098;101645;-82
2023/09/05 07:13:56;;;;;;;12.83;4.90;;;;;;;21.40;62.92;101100.04;124726;1101;104204;-79
2023/09/05 07:16:56;;;;;;;10.10;4.87;;;;;;;21.54;60.79;101100.08;126016;1102;101774;-86
2023/09/05 07:19:40;;;;;;;11.57;4.80;;;;;;;21.74;61.75;101100.08;126078;1102;101754;-82
2023/09/05 07:22:31;;;;;;;;;;;;;;;;;;;;;
2023/09/05 07:25:08;;;;;;;12.03;4.93;;;;;;;22.04;59.06;101098.25;126722;1100;106981;-82
2023/09/05 07:27:58;;;;;;;13.07;4.73;;;;;;;22.12;60.04;101096.44;126575;1101;101697;-84
2023/09/05 07:30:39;;;;;;;11.60;4.87;;;;;;;22.28;59.49;101096.39;125806;1102;101811;-86
2023/09/05 07:33:44;;;;;;;10.23;4.40;;;;;;;22.39;58.77;101083.91;126693;1100;104169;-84
2023/09/05 07:36:40;;;;;;;10.00;4.40;;;;;;;22.57;58.80;101078.48;127082;1099;118833;-82
2023/09/05 07:39:15;;;;;;;8.40;4.55;;;;;;;22.70;59.00;101073.95;125433;1099;104194;-82
2023/09/05 07:42:02;;;;;;;12.20;4.77;;;;;;;22.76;57.05;101083.75;125770;1101;102064;-82
2023/09/05 07:44:46;;;;;;;10.07;4.53;;;;;;;22.90;57.89;101076.52;125681;1099;104281;-82
2023/09/05 07:47:33;;;;;;;8.27;4.60;;;;;;;23.06;57.79;101071.98;125387;1101;101754;-81
2023/09/05 07:50:13;;;;;;;9.60;4.97;;;;;;;23.19;57.95;101071.89;126158;1100;102321;-80
2023/09/05 07:53:05;;;;;;;;;;;;;;;;;;;;;
2023/09/05 07:55:37;;;;;;;9.67;4.53;;;;;;;23.29;55.27;101065.59;125312;1101;101788;-79
2023/09/05 07:58:41;;;;;;;;;;;;;;;;;;;;;
2023/09/05 08:01:51;;;;;;;;;;;;;;;;;;;;;
2023/09/05 08:05:14;;;;;;;8.97;4.43;;;;;;;23.48;54.00;101058.28;124393;1099;104449;-79
2023/09/05 08:07:53;;;;;;;11.70;4.80;;;;;;;23.48;54.40;101058.28;125235;1101;107088;-75
2023/09/05 08:10:31;;;;;;;8.67;4.17;;;;;;;23.48;54.09;101051.16;125664;1101;104278;-77
2023/09/05 08:13:08;;;;;;;9.43;4.27;;;;;;;23.54;54.35;101050.19;125887;1101;102073;-76
2023/09/05 08:16:21;;;;;;;12.93;4.20;;;;;;;23.64;54.38;101043.86;127015;1101;101584;-76
2023/09/05 08:18:57;;;;;;;9.10;4.27;;;;;;;23.62;54.28;101051.03;125916;1099;117893;-75
2023/09/05 08:21:43;;;;;;;8.15;4.20;;;;;;;23.62;52.64;101051.03;125261;1102;104277;-77
2023/09/05 08:24:33;;;;;;;12.07;4.20;;;;;;;23.68;52.92;101039.34;126935;1101;101691;-78
2023/09/05 08:27:17;;;;;;;9.80;3.90;;;;;;;23.77;52.14;101046.42;125661;1102;101786;-77
2023/09/05 08:29:53;;;;;;;10.07;4.20;;;;;;;23.77;51.87;101035.70;125374;1102;104261;-77
2023/09/05 08:32:27;;;;;;;11.57;4.43;;;;;;;23.83;51.88;101035.64;124657;1101;101949;-78
2023/09/05 08:35:09;;;;;;;9.33;4.37;;;;;;;23.91;51.34;101060.58;125995;1101;101840;-78
2023/09/05 08:37:50;;;;;;;7.03;3.57;;;;;;;23.95;51.03;101035.53;124267;1103;104290;-75
2023/09/05 08:40:28;;;;;;;9.33;3.57;;;;;;;24.05;51.18;101022.91;124378;1099;104226;-78
2023/09/05 08:43:10;;;;;;;9.20;3.30;;;;;;;24.11;50.87;101032.69;124337;1102;104268;-77
2023/09/05 08:45:54;;;;;;;9.30;3.43;;;;;;;24.12;49.57;101031.75;124228;1099;102021;-76
2023/09/05 08:48:32;;;;;;;6.20;3.23;;;;;;;24.20;49.92;101022.73;124305;1102;102217;-79
2023/09/05 08:51:09;;;;;;;6.80;3.33;;;;;;;24.19;50.22;101031.66;124264;1102;103533;-75
2023/09/05 08:53:48;;;;;;;5.77;3.00;;;;;;;24.25;49.57;101029.80;124178;1102;104264;-73
2023/09/05 08:56:21;;;;;;;7.30;3.70;;;;;;;24.35;48.67;101039.52;125693;1100;102011;-75
2023/09/05 08:58:56;;;;;;;4.55;3.35;;;;;;;24.40;47.50;101026.93;124918;1098;104176;-75
2023/09/05 09:01:44;;;;;;;8.37;3.00;;;;;;;24.42;48.30;101027.81;125750;1098;104114;-77
2023/09/05 09:04:31;;;;;;;6.47;3.43;;;;;;;24.46;48.62;101039.38;126115;1099;102707;-78
2023/09/05 09:07:42;;;;;;;6.70;3.50;;;;;;;24.54;48.52;101032.11;125440;1098;104294;-80
2023/09/05 09:10:27;;;;;;;7.25;3.40;;;;;;;24.58;47.94;101032.08;125354;1099;104194;-80
2023/09/05 09:13:39;;;;;;;;;;;;;;;;;;;;;
2023/09/05 09:16:37;;;;;;;3.90;2.87;;;;;;;24.72;47.58;101047.98;125909;1100;104095;-83
2023/09/05 09:19:31;;;;;;;7.73;3.20;;;;;;;24.79;47.46;101047.90;126278;1100;104245;-78
2023/09/05 09:22:28;;;;;;;5.27;3.07;;;;;;;24.92;48.24;101049.51;125857;1102;101696;-78
2023/09/05 09:25:22;;;;;;;11.20;3.37;;;;;;;25.02;46.87;101043.06;124986;1099;102058;-76
2023/09/05 09:28:04;;;;;;;6.20;2.90;;;;;;;25.00;47.15;101057.45;124443;1099;104334;-78
2023/09/05 09:31:03;;;;;;;9.10;3.33;;;;;;;25.06;48.03;101042.12;124665;1102;104214;-78
2023/09/05 09:33:55;;;;;;;6.63;3.20;;;;;;;25.09;46.74;101044.75;124922;1102;104130;-80
2023/09/05 09:36:43;;;;;;;6.40;3.30;;;;;;;25.09;46.79;101042.07;126511;1101;104124;-77
2023/09/05 09:39:32;;;;;;;8.23;3.30;;;;;;;25.06;44.57;101047.48;124653;1102;102097;-78
2023/09/05 09:45:11;;;;;;;3.93;2.97;;;;;;;25.14;45.63;101030.38;126154;1099;101938;-78
2023/09/05 09:48:01;;;;;;;5.30;3.27;;;;;;;25.16;46.47;101037.48;124672;1102;101828;-78
2023/09/05 09:50:37;;;;;;;6.30;3.13;;;;;;;25.18;45.55;101032.99;125523;1102;101846;-83
2023/09/05 09:53:12;;;;;;;6.17;3.20;;;;;;;25.30;45.98;101034.60;126155;1101;102406;-80
2023/09/05 09:56:03;;;;;;;7.07;3.30;;;;;;;25.48;46.01;101044.16;125935;1102;102741;-80
2023/09/05 09:58:55;;;;;;;6.90;3.37;;;;;;;25.47;44.81;101042.38;126185;1101;102028;-77
2023/09/05 10:01:42;;;;;;;7.80;3.33;;;;;;;25.52;44.81;101043.17;125447;1099;102115;-79
2023/09/05 10:08:46;;;;;;;7.77;3.10;;;;;;;25.69;44.70;101037.49;126420;1098;101538;-80
2023/09/05 10:11:34;;;;;;;6.50;3.40;;;;;;;25.73;44.89;101031.16;125580;1102;102265;-81
2023/09/05 10:14:56;;;;;;;7.87;3.20;;;;;;;25.71;43.87;101026.72;125667;1098;102308;-77
2023/09/05 10:17:37;;;;;;;5.70;3.20;;;;;;;25.78;44.75;101021.20;124257;1102;104198;-75
2023/09/05 10:20:18;;;;;;;5.70;3.03;;;;;;;25.79;43.87;101024.80;124239;1099;104165;-76
2023/09/05 10:23:01;;;;;;;5.27;3.07;;;;;;;25.70;44.31;101019.59;124190;1099;101804;-75
2023/09/05 10:25:38;;;;;;;6.10;2.97;;;;;;;25.75;44.42;101018.56;124453;1099;101984;-78
2023/09/05 10:31:41;;;;;;;6.35;2.80;;;;;;;25.82;43.18;101009.48;126061;1098;104238;-77
2023/09/05 10:34:54;;;;;;;7.28;2.98;;;;;;;25.82;43.71;101013.95;124494;1099;104307;-76
2023/09/05 10:38:07;;;;;;;5.63;3.10;;;;;;;25.77;43.09;101013.16;125556;1102;104093;-77
2023/09/05 10:40:45;;;;;;;6.83;3.27;;;;;;;25.78;43.61;101004.20;125757;1098;102434;-79
2023/09/05 10:43:24;;;;;;;4.97;3.20;;;;;;;25.80;42.81;101000.57;125748;1099;101919;-81
2023/09/05 10:46:02;;;;;;;6.07;3.17;;;;;;;25.78;42.57;101004.20;125939;1098;104054;-81
2023/09/05 10:48:40;;;;;;;8.33;3.60;;;;;;;25.84;43.32;101004.95;124964;1099;101870;-81
2023/09/05 10:51:15;;;;;;;4.57;3.07;;;;;;;25.91;42.86;101005.70;125131;1099;101917;-77
2023/09/05 10:53:49;;;;;;;5.50;3.10;;;;;;;25.80;42.75;101005.95;124227;1099;104309;-74
2023/09/05 10:56:47;;;;;;;8.03;3.50;;;;;;;25.84;42.96;101002.27;124110;1102;104277;-76
2023/09/05 10:59:29;;;;;;;6.03;3.30;;;;;;;25.89;42.21;101001.30;124066;1102;104284;-77
2023/09/05 11:02:11;;;;;;;5.13;3.10;;;;;;;25.93;42.52;101003.89;124435;1102;104213;-77
2023/09/05 11:04:52;;;;;;;5.00;3.00;;;;;;;25.84;42.46;101014.83;125119;1102;104204;-77
2023/09/05 11:07:33;;;;;;;7.30;3.13;;;;;;;25.70;42.60;101007.03;124314;1099;104220;-74
2023/09/05 11:10:13;;;;;;;5.80;3.23;;;;;;;25.72;42.77;101004.31;124190;1102;104476;-76
2023/09/05 11:12:48;;;;;;;5.10;3.50;;;;;;;25.74;43.03;101006.06;124243;1099;104303;-75
2023/09/05 11:15:36;;;;;;;5.40;3.30;;;;;;;25.73;42.44;101003.41;124303;1102;104201;-75
2023/09/05 11:18:14;;;;;;;6.83;3.30;;;;;;;25.78;42.48;101009.57;124557;1102;101912;-77
2023/09/05 11:20:49;;;;;;;7.53;3.50;;;;;;;25.91;42.73;101003.02;124314;1102;102328;-76
2023/09/05 11:23:25;;;;;;;6.13;3.20;;;;;;;26.05;43.26;100994.70;124420;1099;104198;-79
2023/09/05 11:26:05;;;;;;;7.53;3.33;;;;;;;26.09;42.93;101000.93;126156;1099;104165;-77
2023/09/05 11:28:41;;;;;;;7.17;3.30;;;;;;;26.04;42.74;101009.09;125879;1101;101870;-78
2023/09/05 11:31:27;;;;;;;7.53;3.33;;;;;;;25.90;43.04;100998.58;124363;1099;104188;-77
2023/09/05 11:34:10;;;;;;;6.03;3.30;;;;;;;26.00;43.02;100994.80;125579;1100;101961;-77
2023/09/05 11:36:50;;;;;;;6.70;3.53;;;;;;;26.17;42.72;100997.14;124258;1102;104306;-76
2023/09/05 11:39:35;;;;;;;5.27;3.23;;;;;;;26.26;42.49;100998.77;124305;1102;102854;-77
2023/09/05 11:42:30;;;;;;;6.17;3.30;;;;;;;26.33;41.76;100991.44;124438;1102;102368;-74
2023/09/05 11:45:03;;;;;;;6.78;3.12;;;;;;;26.44;41.69;100991.20;124407;1102;104281;-75
2023/09/05 11:47:41;;;;;;;5.77;3.17;;;;;;;26.50;41.87;100983.86;127130;1099;103039;-77
2023/09/05 11:50:16;;;;;;;8.30;3.60;;;;;;;26.48;41.66;100983.02;124279;1099;104172;-76
2023/09/05 11:53:11;;;;;;;5.17;3.27;;;;;;;26.55;41.82;100984.66;124276;1102;104175;-77
2023/09/05 11:55:43;;;;;;;4.87;3.13;;;;;;;26.63;41.28;100984.48;124140;1102;110902;-73
2023/09/05 11:58:22;;;;;;;;;;;;;;;26.52;41.60;100976.66;125358;1102;101980;-77
2023/09/05 12:04:08;;;;;;;6.30;3.10;;;;;;;26.48;41.20;100964.19;124254;1099;104067;-75
2023/09/05 12:06:54;;;;;;;8.63;3.27;;;;;;;26.55;41.79;100965.83;126314;1099;102084;-79
2023/09/05 12:09:30;;;;;;;9.58;3.50;;;;;;;26.57;41.25;100965.80;125047;1099;103392;-79
2023/09/05 12:12:29;;;;;;;6.13;3.27;;;;;;;26.49;41.09;100962.37;125234;1099;102138;-83
2023/09/05 12:15:06;;;;;;;5.23;3.10;;;;;;;26.44;40.41;100980.44;125419;1098;104277;-78
2023/09/05 12:17:49;;;;;;;5.03;3.10;;;;;;;26.38;40.79;100968.00;124416;1099;102409;-76
2023/09/05 12:20:34;;;;;;;6.17;3.47;;;;;;;26.39;40.47;100958.14;124875;1098;104134;-74
2023/09/05 12:23:32;;;;;;;6.97;3.17;;;;;;;26.52;40.07;100960.52;124236;1102;104281;-74
2023/09/05 12:26:40;;;;;;;5.67;3.27;;;;;;;26.61;40.12;100958.52;124284;1099;104242;-73
2023/09/05 12:29:22;;;;;;;6.70;3.30;;;;;;;26.60;40.77;100951.36;124337;1102;103602;-75